Time;durP1;ratioP1;P1;durP2;ratioP2;P2;SDS_P1;SDS_P2;PMS_P1;PMS_P2;Temp;Humidity;BMP_temperature;BMP_pressure;BME280_temperature;BME280_humidity;BME280_pressure;Samples;Min_cycle;Max_cycle;Signal;HPM_P1;HPM_P2
2022/09/10 00:00:44;;;;;;;0.00;0.00;;;;;;;15.27;90.88;99896.34;5070207;28;20282;-74
2022/09/10 00:03:10;;;;;;;0.00;0.00;;;;;;;15.25;90.71;99893.97;5070050;28;20266;-74
2022/09/10 00:05:40;;;;;;;0.07;0.07;;;;;;;15.25;91.14;99901.41;5068759;28;20509;-73
2022/09/10 00:08:07;;;;;;;0.00;0.00;;;;;;;15.25;91.03;99885.69;5070235;28;20206;-74
2022/09/10 00:10:40;;;;;;;0.00;0.00;;;;;;;15.29;90.79;99894.03;5070160;28;20167;-74
2022/09/10 00:13:08;;;;;;;0.00;0.00;;;;;;;15.26;90.58;99887.31;5070042;28;20719;-74
2022/09/10 00:15:42;;;;;;;0.00;0.00;;;;;;;15.30;90.83;99895.63;5068491;28;20523;-73
2022/09/10 00:18:09;;;;;;;0.00;0.00;;;;;;;15.21;91.37;99897.78;5070156;28;20178;-74
2022/09/10 00:20:41;;;;;;;0.00;0.00;;;;;;;15.15;91.77;99897.25;5071673;28;20194;-74
2022/09/10 00:23:06;;;;;;;0.10;0.10;;;;;;;15.11;92.38;99883.41;5074067;28;20170;-74
2022/09/10 00:25:31;;;;;;;0.13;0.13;;;;;;;15.09;92.81;99899.47;5073808;28;20683;-73
2022/09/10 00:27:59;;;;;;;0.00;0.00;;;;;;;15.10;92.41;99900.28;5073864;28;20623;-74
2022/09/10 00:30:26;;;;;;;0.00;0.00;;;;;;;15.10;92.70;99901.06;5073559;28;20166;-74
2022/09/10 00:32:52;;;;;;;0.20;0.20;;;;;;;15.08;93.59;99897.06;5073835;28;20174;-74
2022/09/10 00:35:18;;;;;;;0.40;0.40;;;;;;;15.02;93.41;99888.28;5072428;28;20204;-74
2022/09/10 00:37:45;;;;;;;0.00;0.00;;;;;;;15.02;93.69;99899.28;5073824;28;20709;-74
2022/09/10 00:40:11;;;;;;;0.00;0.00;;;;;;;15.00;93.86;99889.78;5073550;28;20174;-74
2022/09/10 00:42:36;;;;;;;0.00;0.00;;;;;;;14.97;93.99;99893.25;5073798;28;20174;-75
2022/09/10 00:45:03;;;;;;;0.10;0.10;;;;;;;14.96;94.52;99884.19;5073321;28;20654;-74
2022/09/10 00:47:36;;;;;;;0.43;0.43;;;;;;;14.89;95.06;99884.00;5073450;28;20206;-73
2022/09/10 00:50:15;;;;;;;0.00;0.00;;;;;;;14.88;95.26;99888.72;5072173;28;20185;-74
2022/09/10 00:52:41;;;;;;;0.00;0.00;;;;;;;14.79;95.94;99884.53;5073297;28;20181;-74
2022/09/10 00:55:08;;;;;;;0.47;0.47;;;;;;;14.72;96.38;99887.09;5071722;28;20558;-73
2022/09/10 00:57:33;;;;;;;0.00;0.00;;;;;;;14.71;96.78;99894.53;5073453;28;20525;-74
2022/09/10 01:00:06;;;;;;;0.00;0.00;;;;;;;14.70;97.36;99897.66;5073305;28;20257;-74
2022/09/10 01:02:32;;;;;;;0.00;0.00;;;;;;;14.69;97.61;99893.31;5073280;28;20178;-74
2022/09/10 01:04:57;;;;;;;0.00;0.00;;;;;;;14.71;97.87;99891.78;5073054;28;20178;-74
2022/09/10 01:07:27;;;;;;;0.07;0.07;;;;;;;14.70;97.92;99890.19;5073097;28;20206;-74
2022/09/10 01:09:55;;;;;;;0.00;0.00;;;;;;;14.71;97.92;99886.28;5073269;28;20517;-74
2022/09/10 01:13:04;;;;;;;0.00;0.00;;;;;;;14.71;98.21;99894.53;5073092;28;20516;-74
2022/09/10 01:15:58;;;;;;;0.00;0.00;;;;;;;14.68;98.15;99888.97;5030307;28;20246;-74
2022/09/10 01:18:38;;;;;;;0.20;0.20;;;;;;;14.65;98.21;99889.66;5072596;28;20202;-73
2022/09/10 01:21:21;;;;;;;0.10;0.10;;;;;;;14.67;97.89;99890.13;5072895;28;20177;-73
2022/09/10 01:24:12;;;;;;;0.13;0.13;;;;;;;14.67;98.00;99888.16;5072640;28;20249;-76
2022/09/10 01:27:12;;;;;;;1.23;0.87;;;;;;;14.70;98.01;99890.19;5072759;28;20209;-75
2022/09/10 01:29:57;;;;;;;0.43;0.43;;;;;;;14.73;97.65;99897.75;5070848;28;20468;-75
2022/09/10 01:32:39;;;;;;;0.10;0.10;;;;;;;14.76;97.62;99897.06;5070915;28;20532;-75
2022/09/10 01:35:13;;;;;;;0.53;0.53;;;;;;;14.80;97.69;99895.19;5072381;28;20259;-75
2022/09/10 01:37:42;;;;;;;0.73;0.63;;;;;;;14.85;97.32;99897.66;5072777;28;20185;-75
2022/09/10 01:40:09;;;;;;;0.00;0.00;;;;;;;14.90;96.93;99896.63;5072462;28;20174;-75
2022/09/10 01:42:37;;;;;;;0.43;0.40;;;;;;;14.96;96.32;99905.41;5072673;28;20171;-76
2022/09/10 01:45:02;;;;;;;0.10;0.10;;;;;;;15.00;95.96;99903.53;5072347;28;20174;-76
2022/09/10 01:48:10;;;;;;;0.63;0.43;;;;;;;15.03;95.98;99911.88;5072544;28;20203;-76
2022/09/10 01:50:51;;;;;;;0.20;0.20;;;;;;;15.06;95.52;99916.69;5066343;28;20198;-75
2022/09/10 01:53:46;;;;;;;0.43;0.43;;;;;;;15.10;94.91;99922.28;5072422;28;20181;-76
2022/09/10 01:56:34;;;;;;;0.10;0.10;;;;;;;15.13;94.83;99927.06;5070797;28;20190;-75
2022/09/10 01:59:05;;;;;;;0.00;0.00;;;;;;;15.13;95.00;99916.84;5070868;28;20599;-75
2022/09/10 02:01:43;;;;;;;0.00;0.00;;;;;;;15.15;94.64;99922.81;5072315;28;20185;-75
2022/09/10 02:04:13;;;;;;;0.03;0.03;;;;;;;15.15;94.34;99922.81;5071942;28;20208;-76
2022/09/10 02:06:43;;;;;;;0.10;0.10;;;;;;;15.18;94.50;99921.28;5072141;28;20646;-75
2022/09/10 02:09:09;;;;;;;0.00;0.00;;;;;;;15.21;94.43;99926.09;5072243;28;20224;-75
2022/09/10 02:11:51;;;;;;;0.00;0.00;;;;;;;15.10;94.71;99936.84;5072314;28;20280;-76
2022/09/10 02:14:19;;;;;;;0.00;0.00;;;;;;;15.00;95.68;99928.28;5071680;28;20492;-75
2022/09/10 02:16:52;;;;;;;0.00;0.00;;;;;;;14.96;96.19;99930.16;5071865;28;20633;-76
2022/09/10 02:19:17;;;;;;;0.00;0.00;;;;;;;14.89;96.67;99923.31;5071940;28;20630;-76
2022/09/10 02:21:43;;;;;;;0.00;0.00;;;;;;;15.05;96.66;99925.31;5072149;28;20241;-76
2022/09/10 02:24:10;;;;;;;0.00;0.00;;;;;;;15.08;96.86;99925.38;5071330;28;20515;-76
2022/09/10 02:26:40;;;;;;;0.00;0.00;;;;;;;15.14;96.75;99929.47;5071676;28;20584;-76
2022/09/10 02:29:06;;;;;;;0.00;0.00;;;;;;;15.25;96.11;99927.00;5071642;28;20179;-75
2022/09/10 02:31:32;;;;;;;0.00;0.00;;;;;;;15.11;96.41;99924.69;5071375;28;20603;-76
2022/09/10 02:33:58;;;;;;;0.00;0.00;;;;;;;15.23;96.16;99923.78;5071133;28;20270;-76
2022/09/10 02:36:24;;;;;;;0.00;0.00;;;;;;;15.16;96.48;99924.41;5071545;28;20337;-76
2022/09/10 02:38:51;;;;;;;0.00;0.00;;;;;;;14.88;97.35;99921.72;5071684;28;20262;-76
2022/09/10 02:41:16;;;;;;;0.00;0.00;;;;;;;14.41;100.00;99918.84;5071304;28;20649;-76
2022/09/10 02:43:42;;;;;;;0.00;0.00;;;;;;;14.64;100.00;99924.63;5070222;28;20175;-76
2022/09/10 02:46:08;;;;;;;0.00;0.00;;;;;;;14.64;100.00;99927.38;5071234;28;20176;-75
2022/09/10 02:48:33;;;;;;;0.00;0.00;;;;;;;14.57;100.00;99932.66;5071177;28;20529;-76
2022/09/10 02:50:58;;;;;;;0.00;0.00;;;;;;;14.71;100.00;99935.00;5071198;28;20180;-76
2022/09/10 02:53:24;;;;;;;0.00;0.00;;;;;;;14.85;100.00;99930.69;5070970;28;20182;-76
2022/09/10 02:55:51;;;;;;;0.00;0.00;;;;;;;15.00;100.00;99937.34;5070907;28;20213;-77
2022/09/10 02:58:16;;;;;;;0.00;0.00;;;;;;;15.04;99.54;99926.44;5069819;28;20265;-76
2022/09/10 03:00:43;;;;;;;0.00;0.00;;;;;;;15.10;98.92;99925.84;5071098;28;20702;-77
2022/09/10 03:03:08;;;;;;;0.00;0.00;;;;;;;15.13;98.11;99929.81;5070817;28;20281;-76
2022/09/10 03:05:37;;;;;;;0.00;0.00;;;;;;;15.04;97.54;99921.72;5070644;28;20175;-75
2022/09/10 03:08:02;;;;;;;0.00;0.00;;;;;;;14.89;97.81;99928.81;5070914;28;20209;-76
2022/09/10 03:10:28;;;;;;;0.00;0.00;;;;;;;14.75;98.85;99930.38;5070758;28;20175;-76
2022/09/10 03:12:54;;;;;;;0.00;0.00;;;;;;;14.61;99.82;99922.56;5070904;28;20257;-76
2022/09/10 03:15:19;;;;;;;0.00;0.00;;;;;;;14.55;100.00;99924.75;5070547;28;20258;-75
2022/09/10 03:17:45;;;;;;;0.30;0.30;;;;;;;14.41;100.00;99924.34;5070962;28;20205;-75
2022/09/10 03:20:11;;;;;;;0.10;0.10;;;;;;;14.37;100.00;99925.38;5070673;28;20633;-76
2022/09/10 03:22:37;;;;;;;0.00;0.00;;;;;;;14.32;100.00;99931.13;5070612;28;20178;-76
2022/09/10 03:25:03;;;;;;;0.00;0.00;;;;;;;14.33;100.00;99935.50;5070565;28;20175;-75
2022/09/10 03:27:29;;;;;;;0.00;0.00;;;;;;;14.32;100.00;99925.63;5070919;28;20245;-76
2022/09/10 03:29:54;;;;;;;0.00;0.00;;;;;;;14.34;100.00;99929.63;5069889;28;20210;-74
2022/09/10 03:32:20;;;;;;;0.00;0.00;;;;;;;14.37;100.00;99931.69;5070558;28;20179;-76
2022/09/10 03:34:45;;;;;;;0.00;0.00;;;;;;;14.36;100.00;99937.53;5070419;28;20186;-75
2022/09/10 03:37:10;;;;;;;0.00;0.00;;;;;;;14.44;100.00;99934.66;5070603;28;20175;-75
2022/09/10 03:39:35;;;;;;;0.00;0.00;;;;;;;14.41;100.00;99934.53;5070874;28;20182;-76
2022/09/10 03:42:04;;;;;;;0.00;0.00;;;;;;;14.50;100.00;99927.78;5070399;28;20170;-75
2022/09/10 03:44:30;;;;;;;0.00;0.00;;;;;;;14.56;100.00;99934.59;5069904;28;20178;-76
2022/09/10 03:46:56;;;;;;;0.00;0.00;;;;;;;14.59;100.00;99930.34;5070318;28;20279;-76
2022/09/10 03:49:21;;;;;;;0.00;0.00;;;;;;;14.62;100.00;99931.63;5070439;28;20634;-75
2022/09/10 03:51:47;;;;;;;0.00;0.00;;;;;;;14.68;100.00;99939.25;5070292;28;20217;-76
2022/09/10 03:54:12;;;;;;;0.00;0.00;;;;;;;14.74;100.00;99926.03;5070196;28;20181;-76
2022/09/10 03:56:38;;;;;;;0.00;0.00;;;;;;;14.61;100.00;99936.31;5070241;28;20186;-76
2022/09/10 03:59:04;;;;;;;0.00;0.00;;;;;;;14.51;100.00;99928.56;5070076;28;20178;-76
2022/09/10 04:01:29;;;;;;;0.00;0.00;;;;;;;14.62;100.00;99935.16;5070171;28;20519;-76
2022/09/10 04:03:56;;;;;;;0.00;0.00;;;;;;;14.62;100.00;99935.16;5070096;28;20209;-76
2022/09/10 04:06:21;;;;;;;0.00;0.00;;;;;;;14.82;100.00;99933.34;5070189;28;20216;-76
2022/09/10 04:08:51;;;;;;;0.00;0.00;;;;;;;14.92;100.00;99937.53;5070242;28;20178;-76
2022/09/10 04:11:17;;;;;;;0.00;0.00;;;;;;;15.03;100.00;99939.38;5070132;28;20181;-76
2022/09/10 04:13:44;;;;;;;0.00;0.00;;;;;;;15.11;100.00;99945.88;5069698;28;20175;-76
2022/09/10 04:16:10;;;;;;;0.00;0.00;;;;;;;15.15;99.56;99936.56;5070100;28;20171;-75
2022/09/10 04:18:36;;;;;;;0.00;0.00;;;;;;;15.06;99.13;99938.72;5070180;28;20690;-76
2022/09/10 04:21:01;;;;;;;0.00;0.00;;;;;;;14.86;99.44;99935.03;5070039;28;20171;-76
2022/09/10 04:23:28;;;;;;;1.60;0.27;;;;;;;14.71;100.00;99924.00;5069933;28;20174;-76
2022/09/10 04:25:54;;;;;;;0.00;0.00;;;;;;;14.62;100.00;99924.16;5069944;28;20182;-75
2022/09/10 04:28:19;;;;;;;0.20;0.20;;;;;;;14.54;100.00;99933.34;5069816;28;20217;-76
2022/09/10 04:30:45;;;;;;;0.10;0.10;;;;;;;14.48;100.00;99929.28;5069496;28;20178;-76
2022/09/10 04:33:11;;;;;;;0.00;0.00;;;;;;;14.47;100.00;99933.97;5069850;28;20179;-76
2022/09/10 04:35:38;;;;;;;0.00;0.00;;;;;;;14.47;100.00;99924.94;5069725;28;20638;-75
2022/09/10 04:38:03;;;;;;;0.00;0.00;;;;;;;14.53;100.00;99927.06;5069862;28;20206;-76
2022/09/10 04:40:29;;;;;;;0.10;0.10;;;;;;;14.52;100.00;99936.47;5069771;28;20246;-75
2022/09/10 04:42:54;;;;;;;0.00;0.00;;;;;;;14.56;100.00;99939.31;5069817;28;20178;-75
2022/09/10 04:45:19;;;;;;;0.00;0.00;;;;;;;14.57;100.00;99938.16;5069536;28;20177;-75
2022/09/10 04:47:45;;;;;;;0.00;0.00;;;;;;;14.54;100.00;99945.16;5069845;28;20206;-76
2022/09/10 04:50:11;;;;;;;0.00;0.00;;;;;;;14.60;100.00;99931.94;5068635;28;20178;-76
2022/09/10 04:52:36;;;;;;;0.00;0.00;;;;;;;14.64;100.00;99940.31;5069616;28;20174;-76
2022/09/10 04:55:02;;;;;;;0.00;0.00;;;;;;;14.65;100.00;99944.66;5069443;28;20228;-75
2022/09/10 04:57:28;;;;;;;0.00;0.00;;;;;;;14.62;100.00;99940.66;5070067;28;20218;-76
2022/09/10 04:59:54;;;;;;;0.00;0.00;;;;;;;14.77;100.00;99942.66;5069835;28;20989;-76
2022/09/10 05:02:20;;;;;;;0.43;0.43;;;;;;;14.76;100.00;99940.25;5069598;28;20191;-76
2022/09/10 05:04:45;;;;;;;0.00;0.00;;;;;;;14.79;100.00;99958.81;5069405;28;20175;-76
2022/09/10 05:07:10;;;;;;;0.00;0.00;;;;;;;14.89;100.00;99950.81;5071934;28;20205;-75
2022/09/10 05:09:36;;;;;;;0.30;0.30;;;;;;;14.91;100.00;99953.25;5073118;28;20258;-75
2022/09/10 05:12:01;;;;;;;0.00;0.00;;;;;;;14.97;100.00;99956.53;5073207;28;20179;-76
2022/09/10 05:14:28;;;;;;;0.00;0.00;;;;;;;14.93;100.00;99958.38;5073120;28;20178;-76
2022/09/10 05:16:54;;;;;;;0.00;0.00;;;;;;;14.90;100.00;99962.66;5073075;28;20705;-76
2022/09/10 05:19:19;;;;;;;0.00;0.00;;;;;;;15.03;100.00;99963.34;5073017;28;20253;-76
2022/09/10 05:21:47;;;;;;;0.00;0.00;;;;;;;15.03;100.00;99955.91;5072898;28;20202;-75
2022/09/10 05:24:12;;;;;;;0.00;0.00;;;;;;;15.09;99.92;99961.97;5072868;28;20261;-75
2022/09/10 05:26:38;;;;;;;0.00;0.00;;;;;;;15.08;100.00;99960.34;5072921;28;20742;-76
2022/09/10 05:29:04;;;;;;;0.00;0.00;;;;;;;15.03;100.00;99963.34;5072823;28;20166;-76
2022/09/10 05:31:29;;;;;;;0.00;0.00;;;;;;;15.05;100.00;99959.13;5072351;28;20178;-76
2022/09/10 05:33:54;;;;;;;0.00;0.00;;;;;;;15.04;99.96;99968.50;5071120;28;20210;-75
2022/09/10 05:36:20;;;;;;;0.00;0.00;;;;;;;15.06;100.00;99968.19;5073029;28;20175;-76
2022/09/10 05:38:45;;;;;;;0.00;0.00;;;;;;;15.10;100.00;99969.06;5072891;28;20200;-76
2022/09/10 05:41:11;;;;;;;0.00;0.00;;;;;;;15.15;99.99;99966.03;5072685;28;20260;-76
2022/09/10 05:43:37;;;;;;;0.23;0.23;;;;;;;15.10;100.00;99969.84;5072369;28;20182;-76
2022/09/10 05:46:03;;;;;;;0.00;0.00;;;;;;;15.17;100.00;99971.97;5072524;28;20622;-76
2022/09/10 05:48:29;;;;;;;0.00;0.00;;;;;;;15.12;100.00;99967.53;5072899;28;20175;-76
2022/09/10 05:50:55;;;;;;;0.10;0.10;;;;;;;15.22;100.00;99968.97;5072653;28;20173;-75
2022/09/10 05:53:20;;;;;;;2.40;1.20;;;;;;;15.24;99.57;99969.44;5072163;28;20178;-77
2022/09/10 05:55:46;;;;;;;1.10;1.10;;;;;;;15.20;99.20;99971.28;5072058;28;20178;-75
2022/09/10 05:58:12;;;;;;;2.90;0.40;;;;;;;15.19;99.96;99966.94;5071122;28;20727;-76
2022/09/10 06:00:38;;;;;;;0.00;0.00;;;;;;;15.12;99.61;99964.00;5072260;28;20258;-76
2022/09/10 06:03:04;;;;;;;0.10;0.10;;;;;;;15.10;100.00;99961.59;5072065;28;20197;-76
2022/09/10 06:05:30;;;;;;;0.03;0.03;;;;;;;15.07;100.00;99964.28;5071967;28;20196;-76
2022/09/10 06:07:55;;;;;;;0.33;0.33;;;;;;;15.09;100.00;99960.00;5072442;28;20214;-75
2022/09/10 06:10:21;;;;;;;0.00;0.00;;;;;;;15.13;100.00;99966.38;5072065;28;20218;-75
2022/09/10 06:12:51;;;;;;;0.00;0.00;;;;;;;15.19;100.00;99961.44;5072047;28;20240;-75
2022/09/10 06:15:18;;;;;;;0.10;0.10;;;;;;;15.21;100.00;99964.63;5071721;28;20178;-76
2022/09/10 06:17:44;;;;;;;0.00;0.00;;;;;;;15.24;100.00;99966.69;5071827;28;20712;-75
2022/09/10 06:20:11;;;;;;;0.00;0.00;;;;;;;15.24;100.00;99969.44;5071795;28;20257;-75
2022/09/10 06:22:37;;;;;;;0.10;0.10;;;;;;;15.27;100.00;99962.41;5071741;28;20174;-76
2022/09/10 06:25:02;;;;;;;0.00;0.00;;;;;;;15.24;100.00;99963.13;5071524;28;20170;-74
2022/09/10 06:27:28;;;;;;;0.30;0.30;;;;;;;15.23;100.00;99964.28;5070404;28;20309;-74
2022/09/10 06:29:55;;;;;;;0.00;0.00;;;;;;;15.25;100.00;99968.28;5071137;28;20253;-74
2022/09/10 06:32:20;;;;;;;2.37;0.23;;;;;;;15.23;100.00;99972.53;5071545;28;20170;-74
2022/09/10 06:34:45;;;;;;;0.40;0.40;;;;;;;15.23;100.00;99967.03;5071311;28;20179;-74
2022/09/10 06:37:12;;;;;;;0.20;0.20;;;;;;;15.23;99.99;99958.78;5071621;28;20581;-74
2022/09/10 06:39:37;;;;;;;0.00;0.00;;;;;;;15.21;100.00;99966.59;5071365;28;20177;-74
2022/09/10 06:42:03;;;;;;;0.00;0.00;;;;;;;15.23;100.00;99962.31;5071348;28;20178;-74
2022/09/10 06:44:28;;;;;;;4.23;0.87;;;;;;;15.24;100.00;99965.88;5071086;28;20553;-74
2022/09/10 06:46:53;;;;;;;0.10;0.10;;;;;;;15.26;100.00;99967.13;5071240;28;20678;-74
2022/09/10 06:49:20;;;;;;;0.10;0.00;;;;;;;15.28;100.00;99966.75;5071345;28;20174;-74
2022/09/10 06:51:46;;;;;;;0.00;0.00;;;;;;;15.32;100.00;99975.91;5071249;28;20228;-75
2022/09/10 06:54:11;;;;;;;0.30;0.30;;;;;;;15.40;100.00;99972.19;5070917;28;20186;-74
2022/09/10 06:56:37;;;;;;;0.00;0.00;;;;;;;15.48;99.73;99985.78;5071039;28;20634;-73
2022/09/10 06:59:03;;;;;;;0.00;0.00;;;;;;;15.58;99.09;99991.88;5071039;28;20270;-74
2022/09/10 07:01:28;;;;;;;0.00;0.00;;;;;;;15.55;97.45;99989.84;5071099;28;20208;-74
2022/09/10 07:03:55;;;;;;;0.00;0.00;;;;;;;15.61;97.59;99988.44;5070749;28;20175;-73
2022/09/10 07:06:22;;;;;;;0.00;0.00;;;;;;;15.68;97.17;100002.41;5070978;28;20251;-74
2022/09/10 07:08:47;;;;;;;6.80;1.20;;;;;;;15.71;96.79;99996.97;5071258;28;20520;-74
2022/09/10 07:11:14;;;;;;;0.00;0.00;;;;;;;15.79;96.46;100005.44;5070940;28;20170;-75
2022/09/10 07:13:41;;;;;;;0.00;0.00;;;;;;;15.85;96.06;100002.03;5070458;28;20193;-74
2022/09/10 07:16:07;;;;;;;0.87;0.53;;;;;;;15.94;95.72;100010.91;5070908;28;20225;-75
2022/09/10 07:18:33;;;;;;;0.13;0.00;;;;;;;15.99;94.86;100015.34;5070955;28;20206;-73
2022/09/10 07:21:10;;;;;;;9.73;0.40;;;;;;;15.97;93.57;100009.41;5070719;28;20334;-75
2022/09/10 07:23:37;;;;;;;0.00;0.00;;;;;;;16.03;93.62;100013.47;5070271;28;20255;-74
2022/09/10 07:26:08;;;;;;;0.20;0.20;;;;;;;16.06;93.46;100012.75;5070443;28;20175;-74
2022/09/10 07:28:35;;;;;;;0.00;0.00;;;;;;;16.10;93.07;100015.59;5070440;28;20189;-75
2022/09/10 07:31:09;;;;;;;0.10;0.10;;;;;;;16.14;92.36;100010.97;5070363;28;20167;-74
2022/09/10 07:33:35;;;;;;;0.00;0.00;;;;;;;16.23;91.82;100011.56;5070358;28;20213;-74
2022/09/10 07:36:00;;;;;;;5.03;0.30;;;;;;;16.28;91.22;100011.28;5070500;28;20174;-74
2022/09/10 07:38:27;;;;;;;0.23;0.23;;;;;;;16.28;89.53;100023.09;5070453;28;20170;-74
2022/09/10 07:40:52;;;;;;;0.00;0.00;;;;;;;16.36;89.76;100024.06;5070460;28;20170;-74
2022/09/10 07:43:18;;;;;;;4.00;0.93;;;;;;;16.53;89.19;100026.41;5070301;28;20638;-74
2022/09/10 07:45:43;;;;;;;0.00;0.00;;;;;;;16.58;88.15;100030.81;5070239;28;20177;-74
2022/09/10 07:48:10;;;;;;;0.17;0.10;;;;;;;16.57;87.12;100027.28;5070376;28;20212;-74
2022/09/10 07:50:37;;;;;;;0.00;0.00;;;;;;;16.71;87.78;100037.03;5070757;28;20341;-75
2022/09/10 07:53:02;;;;;;;0.00;0.00;;;;;;;16.76;86.92;100039.50;5070360;28;20212;-73
2022/09/10 07:55:30;;;;;;;0.00;0.00;;;;;;;16.89;87.26;100036.22;5069856;28;20187;-74
2022/09/10 07:57:56;;;;;;;0.33;0.33;;;;;;;17.02;86.33;100036.09;5070438;28;20206;-74
2022/09/10 08:00:21;;;;;;;0.10;0.10;;;;;;;17.07;85.47;100049.59;5070206;28;20205;-74
2022/09/10 08:02:46;;;;;;;0.00;0.00;;;;;;;17.08;85.53;100042.94;5070219;28;20203;-74
2022/09/10 08:05:12;;;;;;;0.00;0.00;;;;;;;17.09;85.29;100048.06;5069904;28;20167;-74
2022/09/10 08:07:38;;;;;;;0.57;0.20;;;;;;;17.20;85.41;100056.53;5070401;28;20241;-76
2022/09/10 08:10:08;;;;;;;0.87;0.57;;;;;;;17.08;84.13;100049.25;5070203;28;20526;-74
2022/09/10 08:12:35;;;;;;;0.13;0.03;;;;;;;16.96;83.98;100049.41;5070177;28;20201;-74
2022/09/10 08:15:00;;;;;;;0.23;0.20;;;;;;;16.97;85.04;100064.78;5070118;28;20174;-74
2022/09/10 08:17:29;;;;;;;0.23;0.20;;;;;;;16.89;84.34;100055.56;5070308;28;20194;-75
2022/09/10 08:19:55;;;;;;;0.03;0.00;;;;;;;16.94;84.09;100057.25;5069946;28;20458;-74
2022/09/10 08:22:20;;;;;;;0.00;0.00;;;;;;;16.89;83.99;100058.31;5070054;28;20173;-74
2022/09/10 08:24:47;;;;;;;0.03;0.03;;;;;;;16.86;84.37;100061.81;5069736;28;20163;-74
2022/09/10 08:27:13;;;;;;;0.00;0.00;;;;;;;16.89;84.91;100060.28;5070320;28;20293;-74
2022/09/10 08:29:38;;;;;;;0.97;0.10;;;;;;;16.95;85.00;100070.66;5069888;28;20170;-73
2022/09/10 08:32:05;;;;;;;0.00;0.00;;;;;;;17.05;84.95;100065.72;5069722;28;20174;-73
2022/09/10 08:34:30;;;;;;;0.00;0.00;;;;;;;17.07;83.76;100066.16;5069672;28;20174;-73
2022/09/10 08:36:56;;;;;;;0.00;0.00;;;;;;;17.22;85.00;100071.59;5069961;28;20566;-73
2022/09/10 08:39:21;;;;;;;0.03;0.03;;;;;;;17.36;84.16;100073.84;5070537;28;20224;-74
2022/09/10 08:42:03;;;;;;;0.07;0.07;;;;;;;17.44;82.98;100078.31;5071712;28;20642;-74
2022/09/10 08:44:53;;;;;;;0.10;0.10;;;;;;;17.50;82.61;100085.16;5073397;28;20182;-74
2022/09/10 08:47:41;;;;;;;0.00;0.00;;;;;;;17.45;81.63;100079.09;5073875;28;20242;-74
2022/09/10 08:50:23;;;;;;;0.10;0.10;;;;;;;17.42;82.15;100077.88;5073587;28;20175;-74
2022/09/10 08:53:00;;;;;;;0.07;0.07;;;;;;;17.32;82.28;100083.19;5073421;28;20166;-74
2022/09/10 08:55:33;;;;;;;0.00;0.00;;;;;;;17.25;82.88;100076.38;5073150;28;20178;-74
2022/09/10 08:58:10;;;;;;;0.00;0.00;;;;;;;17.23;83.18;100070.44;5073435;28;20653;-73
2022/09/10 09:00:43;;;;;;;0.00;0.00;;;;;;;17.33;83.70;100073.75;5073300;28;20162;-74
2022/09/10 09:03:31;;;;;;;1.23;1.23;;;;;;;17.30;82.96;100075.28;5073129;28;20580;-74
2022/09/10 09:05:59;;;;;;;0.00;0.00;;;;;;;17.23;82.85;100069.63;5073354;28;20194;-74
2022/09/10 09:08:28;;;;;;;0.20;0.20;;;;;;;17.33;83.58;100073.75;5073091;28;20612;-74
2022/09/10 09:11:22;;;;;;;0.10;0.10;;;;;;;17.33;84.08;100080.06;5073060;28;20182;-74
2022/09/10 09:14:15;;;;;;;0.37;0.17;;;;;;;17.29;83.54;100076.44;5072798;28;20181;-74
2022/09/10 09:17:07;;;;;;;0.00;0.00;;;;;;;17.35;83.29;100071.41;5073244;28;20185;-74
2022/09/10 09:19:51;;;;;;;0.10;0.00;;;;;;;17.44;82.37;100080.28;5073023;28;20638;-74
2022/09/10 09:22:20;;;;;;;0.20;0.20;;;;;;;17.51;82.07;100085.94;5072933;28;20179;-73
2022/09/10 09:24:56;;;;;;;0.00;0.00;;;;;;;17.64;81.99;100081.81;5072591;28;20618;-74
2022/09/10 09:27:26;;;;;;;0.03;0.03;;;;;;;17.57;80.36;100080.91;5072969;28;20225;-74
2022/09/10 09:30:02;;;;;;;0.40;0.40;;;;;;;17.50;81.22;100076.03;5072535;28;20669;-73
2022/09/10 09:32:33;;;;;;;0.00;0.00;;;;;;;17.43;81.58;100084.22;5072935;28;20526;-73
2022/09/10 09:35:15;;;;;;;0.00;0.00;;;;;;;17.60;82.29;100075.44;5072675;28;20656;-74
2022/09/10 09:37:44;;;;;;;0.40;0.40;;;;;;;17.72;81.82;100074.50;5071422;28;20171;-74
2022/09/10 09:40:11;;;;;;;0.10;0.10;;;;;;;17.73;81.46;100071.38;5072627;28;20224;-73
2022/09/10 09:43:02;;;;;;;0.20;0.00;;;;;;;17.72;80.73;100072.53;5071250;28;20633;-74
2022/09/10 09:45:37;;;;;;;0.00;0.00;;;;;;;17.70;81.37;100071.31;5072439;28;20586;-74
2022/09/10 09:48:10;;;;;;;0.00;0.00;;;;;;;17.65;80.84;100072.38;5072483;28;20284;-74
2022/09/10 09:50:40;;;;;;;0.37;0.37;;;;;;;17.76;81.29;100070.63;5072238;28;20179;-74
2022/09/10 09:53:08;;;;;;;0.00;0.00;;;;;;;17.99;80.54;100078.09;5072021;28;20186;-74
2022/09/10 09:55:46;;;;;;;0.00;0.00;;;;;;;18.13;80.87;100072.81;5072033;28;20190;-74
2022/09/10 09:58:20;;;;;;;0.47;0.30;;;;;;;18.11;81.10;100073.19;5072403;28;20708;-73
2022/09/10 10:00:55;;;;;;;0.33;0.20;;;;;;;17.98;81.69;100062.69;5072274;28;20162;-74
2022/09/10 10:03:26;;;;;;;0.00;0.00;;;;;;;18.03;82.42;100065.94;5072245;28;20198;-74
2022/09/10 10:06:08;;;;;;;0.00;0.00;;;;;;;18.23;82.41;100071.38;5070649;28;20220;-74
2022/09/10 10:08:51;;;;;;;0.00;0.00;;;;;;;18.37;79.31;100061.34;5072072;28;20210;-74
2022/09/10 10:11:19;;;;;;;0.00;0.00;;;;;;;18.27;78.90;100061.16;5070653;28;20170;-74
2022/09/10 10:13:46;;;;;;;0.00;0.00;;;;;;;18.18;79.55;100063.38;5071607;28;20181;-74
2022/09/10 10:16:22;;;;;;;0.00;0.00;;;;;;;18.11;78.48;100059.34;5071976;28;20645;-73
2022/09/10 10:18:49;;;;;;;0.10;0.10;;;;;;;18.10;79.28;100066.06;5070644;28;20174;-74
2022/09/10 10:21:29;;;;;;;0.00;0.00;;;;;;;18.05;79.58;100058.06;5071880;28;20198;-73
2022/09/10 10:23:54;;;;;;;0.00;0.00;;;;;;;18.21;80.68;100057.91;5070064;28;20605;-73
2022/09/10 10:26:19;;;;;;;0.00;0.00;;;;;;;18.18;79.47;100055.09;5072115;28;20261;-74
2022/09/10 10:28:58;;;;;;;0.00;0.00;;;;;;;18.21;78.69;100055.13;5071826;28;20173;-74
2022/09/10 10:31:34;;;;;;;0.20;0.00;;;;;;;17.83;80.00;100054.16;5071880;28;20239;-74
2022/09/10 10:34:08;;;;;;;0.13;0.13;;;;;;;17.91;83.00;100046.78;5071338;28;20197;-74
2022/09/10 10:36:51;;;;;;;0.00;0.00;;;;;;;17.94;82.59;100059.06;5071557;28;20634;-73
2022/09/10 10:39:41;;;;;;;0.00;0.00;;;;;;;17.98;81.38;100059.94;5071583;28;20227;-74
2022/09/10 10:42:19;;;;;;;0.00;0.00;;;;;;;17.79;82.26;100058.84;5071515;28;20177;-73
2022/09/10 10:44:59;;;;;;;0.23;0.23;;;;;;;17.69;83.50;100059.47;5071689;28;20492;-74
2022/09/10 10:47:24;;;;;;;0.00;0.00;;;;;;;17.83;84.65;100056.13;5071451;28;20209;-73
2022/09/10 10:50:08;;;;;;;0.00;0.00;;;;;;;18.26;84.46;100056.81;5069862;28;20604;-73
2022/09/10 10:52:39;;;;;;;0.00;0.00;;;;;;;18.66;82.23;100058.97;5071265;28;20296;-74
2022/09/10 10:55:14;;;;;;;0.00;0.00;;;;;;;18.92;79.96;100053.38;5071208;28;20646;-73
2022/09/10 10:58:14;;;;;;;0.10;0.10;;;;;;;19.12;77.96;100055.97;5071325;28;20630;-74
2022/09/10 11:00:44;;;;;;;0.00;0.00;;;;;;;19.01;76.33;100062.19;5071000;28;20175;-74
2022/09/10 11:03:14;;;;;;;0.00;0.00;;;;;;;19.05;74.95;100053.91;5070654;28;20202;-74
2022/09/10 11:05:45;;;;;;;0.30;0.10;;;;;;;19.10;74.42;100045.28;5070681;28;20658;-74
2022/09/10 11:08:20;;;;;;;0.00;0.00;;;;;;;19.06;75.07;100052.75;5071218;28;20212;-73
2022/09/10 11:10:59;;;;;;;0.00;0.00;;;;;;;18.95;75.08;100052.63;5071148;28;20174;-74
2022/09/10 11:13:34;;;;;;;0.10;0.10;;;;;;;18.68;75.35;100046.38;5070736;28;20258;-74
2022/09/10 11:16:05;;;;;;;0.00;0.00;;;;;;;18.71;76.79;100042.03;5070885;28;20575;-74
2022/09/10 11:18:35;;;;;;;0.00;0.00;;;;;;;18.64;77.16;100037.19;5070877;28;20182;-74
2022/09/10 11:21:11;;;;;;;0.10;0.10;;;;;;;18.50;77.48;100034.22;5070569;28;20181;-74
2022/09/10 11:24:11;;;;;;;0.20;0.20;;;;;;;18.32;78.38;100028.44;5070416;28;20490;-74
2022/09/10 11:27:03;;;;;;;0.00;0.00;;;;;;;18.38;79.13;100024.19;5048034;28;20214;-74
2022/09/10 11:29:48;;;;;;;0.30;0.30;;;;;;;18.31;77.83;100032.38;5071063;28;20193;-74
2022/09/10 11:32:38;;;;;;;0.00;0.00;;;;;;;18.11;77.97;100028.94;5070841;28;20450;-74
2022/09/10 11:35:26;;;;;;;0.07;0.00;;;;;;;18.28;77.85;100030.38;5070351;28;20170;-74
2022/09/10 11:37:57;;;;;;;0.10;0.10;;;;;;;18.49;77.22;100031.81;5070627;28;20216;-75
2022/09/10 11:40:54;;;;;;;0.10;0.10;;;;;;;18.62;74.68;100044.25;5070474;28;20257;-74